Oriental Clematis — 9VJT5 — position and weather

sailwx.info

Track history (hours):
 
Tides and Currents Weather Stations Pressure Air Temp Water Temp Dewpoint Dewpoint Depression Visibility Wind Speed Wind Dir Waves Ship Positions

Oriental Clematis

Last reported at 2017-Jan-22 10:19 UTC. Time now 2017-Jan-23 18:47 UTC.
Position N 01°23' E 104°02'.

Length 134 m; draft 7.8 m.

Type: Ship (hazmat cat C). MMSI: 565157000.

Date/timePositionNaut miles runAvg speedWind from/ knotsBaromVisibWave heightAir tempDewpointWater temp
2017-Jan-22 10:19N 01°23' E 104°02'7 8.9
2017-Jan-22 09:33N 01°25' E 103°55'1 1.1
2017-Jan-22 08:20N 01°26' E 103°54'0 0.0
2017-Jan-22 07:33N 01°26' E 103°54'0 0.0
2017-Jan-22 06:30N 01°26' E 103°54'0 0.0
2017-Jan-22 05:33N 01°26' E 103°54'0 0.0
2017-Jan-22 04:32N 01°26' E 103°54'0 0.0
2017-Jan-22 03:32N 01°26' E 103°54'0 0.0
2017-Jan-22 02:33N 01°26' E 103°54'0 0.0
2017-Jan-22 01:33N 01°26' E 103°54'0 0.0
2017-Jan-22 00:33N 01°26' E 103°54'0 0.0
2017-Jan-21 23:31N 01°26' E 103°54'0 0.0
2017-Jan-21 22:28N 01°26' E 103°54'0 0.0
2017-Jan-21 21:33N 01°26' E 103°54'0 0.0
2017-Jan-21 20:33N 01°26' E 103°54'0 0.0
2017-Jan-21 19:33N 01°26' E 103°54'0 0.0
2017-Jan-21 18:31N 01°26' E 103°54'0 0.0
2017-Jan-21 17:33N 01°26' E 103°54'0 0.0
2017-Jan-21 15:04N 01°26' E 103°54'0 0.0
2017-Jan-21 14:33N 01°26' E 103°54'0 0.3
2017-Jan-21 13:32N 01°26' E 103°54'13 1.0
2017-Jan-21 00:33N 01°15' E 104°02'7710.6
2017-Jan-20 17:14N 01°38' E 102°48'2011.9
2017-Jan-20 15:33N 01°46' E 102°30'1211.8
2017-Jan-20 14:32N 01°52' E 102°19'  
2017-Jan-17 07:16N 01°55' E 102°21'1013.3
2017-Jan-17 06:33N 01°51' E 102°29'1312.8
2017-Jan-17 05:33N 01°46' E 102°41'68 2.2
2017-Jan-15 22:30N 01°13' E 103°40'11 0.7
2017-Jan-15 07:28N 01°12' E 103°51'1011.1
2017-Jan-15 06:33N 01°16' E 104°00'  
Track history (hours):
 
Tides and Currents Weather Stations Pressure Air Temp Water Temp Dewpoint Dewpoint Depression Visibility Wind Speed Wind Dir Waves Ship Positions

Oriental Clematis

Last reported at 2017-Jan-22 10:19 UTC. Time now 2017-Jan-23 18:47 UTC.
Position N 01°23' E 104°02'.

Length 134 m; draft 7.8 m.

Type: Ship (hazmat cat C). MMSI: 565157000.

Date/timePositionNaut miles runAvg speedWind from/ knotsBaromVisibWave heightAir tempDewpointWater temp
2017-Jan-22 10:19N 01°23' E 104°02'7 8.9
2017-Jan-22 09:33N 01°25' E 103°55'1 1.1
2017-Jan-22 08:20N 01°26' E 103°54'0 0.0
2017-Jan-22 07:33N 01°26' E 103°54'0 0.0
2017-Jan-22 06:30N 01°26' E 103°54'0 0.0
2017-Jan-22 05:33N 01°26' E 103°54'0 0.0
2017-Jan-22 04:32N 01°26' E 103°54'0 0.0
2017-Jan-22 03:32N 01°26' E 103°54'0 0.0
2017-Jan-22 02:33N 01°26' E 103°54'0 0.0
2017-Jan-22 01:33N 01°26' E 103°54'0 0.0
2017-Jan-22 00:33N 01°26' E 103°54'0 0.0
2017-Jan-21 23:31N 01°26' E 103°54'0 0.0
2017-Jan-21 22:28N 01°26' E 103°54'0 0.0
2017-Jan-21 21:33N 01°26' E 103°54'0 0.0
2017-Jan-21 20:33N 01°26' E 103°54'0 0.0
2017-Jan-21 19:33N 01°26' E 103°54'0 0.0
2017-Jan-21 18:31N 01°26' E 103°54'0 0.0
2017-Jan-21 17:33N 01°26' E 103°54'0 0.0
2017-Jan-21 15:04N 01°26' E 103°54'0 0.0
2017-Jan-21 14:33N 01°26' E 103°54'0 0.3
2017-Jan-21 13:32N 01°26' E 103°54'13 1.0
2017-Jan-21 00:33N 01°15' E 104°02'7710.6
2017-Jan-20 17:14N 01°38' E 102°48'2011.9
2017-Jan-20 15:33N 01°46' E 102°30'1211.8
2017-Jan-20 14:32N 01°52' E 102°19'  
2017-Jan-17 07:16N 01°55' E 102°21'1013.3
2017-Jan-17 06:33N 01°51' E 102°29'1312.8
2017-Jan-17 05:33N 01°46' E 102°41'68 2.2
2017-Jan-15 22:30N 01°13' E 103°40'11 0.7
2017-Jan-15 07:28N 01°12' E 103°51'1011.1
2017-Jan-15 06:33N 01°16' E 104°00'  

Dump ship's entire track history